createdAt,value
2019-03-24T00:02:23.131Z,10.47
2019-03-24T00:04:53.533Z,10.50
2019-03-24T00:07:24.296Z,9.87
2019-03-24T00:09:54.619Z,10.00
2019-03-24T00:12:24.983Z,10.90
2019-03-24T00:14:55.261Z,11.00
2019-03-24T00:17:25.717Z,10.90
2019-03-24T00:19:56.050Z,11.40
2019-03-24T00:22:26.341Z,10.57
2019-03-24T00:24:56.650Z,10.27
2019-03-24T00:27:28.208Z,11.07
2019-03-24T00:29:58.631Z,10.17
2019-03-24T00:32:29.220Z,11.13
2019-03-24T00:34:59.584Z,12.00
2019-03-24T00:37:29.913Z,10.00
2019-03-24T00:40:00.384Z,10.37
2019-03-24T00:42:30.806Z,11.37
2019-03-24T00:45:01.357Z,9.40
2019-03-24T00:47:31.894Z,10.97
2019-03-24T00:50:02.341Z,11.20
2019-03-24T00:52:32.813Z,11.97
2019-03-24T00:55:03.364Z,11.50
2019-03-24T00:57:33.935Z,10.73
2019-03-24T01:00:08.709Z,10.03
2019-03-24T01:02:39.201Z,10.27
2019-03-24T01:05:09.960Z,11.43
2019-03-24T01:07:40.328Z,10.63
2019-03-24T01:10:10.781Z,10.60
2019-03-24T01:12:41.036Z,9.50
2019-03-24T01:15:11.597Z,11.00
2019-03-24T01:17:42.178Z,11.23
2019-03-24T01:20:12.670Z,10.97
2019-03-24T01:22:43.045Z,12.17
2019-03-24T01:25:13.517Z,10.43
2019-03-24T01:27:43.818Z,10.13
2019-03-24T01:30:14.561Z,9.60
2019-03-24T01:32:45.288Z,12.63
2019-03-24T01:35:15.793Z,11.87
2019-03-24T01:37:46.164Z,10.87
2019-03-24T01:40:16.576Z,11.20
2019-03-24T01:42:46.937Z,10.57
2019-03-24T01:45:17.725Z,10.20
2019-03-24T01:47:47.996Z,10.07
2019-03-24T01:50:18.349Z,10.27
2019-03-24T01:52:48.722Z,10.10
2019-03-24T01:55:19.039Z,9.33
2019-03-24T01:57:49.461Z,9.97
2019-03-24T02:00:19.976Z,10.23
2019-03-24T02:02:50.830Z,9.20
2019-03-24T02:05:21.217Z,8.90
2019-03-24T02:07:51.557Z,10.00
2019-03-24T02:10:21.913Z,9.77
2019-03-24T02:12:52.484Z,8.27
2019-03-24T02:15:23.027Z,10.80
2019-03-24T02:17:53.494Z,11.27
2019-03-24T02:20:24.323Z,9.40
2019-03-24T02:22:54.784Z,10.10
2019-03-24T02:25:25.296Z,9.57
2019-03-24T02:27:56.102Z,9.87
2019-03-24T02:30:28.379Z,10.63
2019-03-24T02:32:58.693Z,9.07
2019-03-24T02:35:29.254Z,9.10
2019-03-24T02:37:59.526Z,10.73
2019-03-24T02:40:29.819Z,10.80
2019-03-24T02:43:00.167Z,9.97
2019-03-24T02:45:31.485Z,9.97
2019-03-24T02:48:01.872Z,10.60
2019-03-24T02:50:32.126Z,10.13
2019-03-24T02:53:02.421Z,11.23
2019-03-24T02:55:32.756Z,10.23
2019-03-24T02:58:03.092Z,11.67
2019-03-24T03:00:33.433Z,11.67
2019-03-24T03:03:03.869Z,12.83
2019-03-24T03:05:34.144Z,11.27
2019-03-24T03:08:04.572Z,9.47
2019-03-24T03:10:35.213Z,11.50
2019-03-24T03:13:05.548Z,10.27
2019-03-24T03:15:36.183Z,9.73
2019-03-24T03:18:06.623Z,10.60
2019-03-24T03:20:37.223Z,10.10
2019-03-24T03:23:07.677Z,12.00
2019-03-24T03:25:37.978Z,11.10
2019-03-24T03:28:08.355Z,11.20
2019-03-24T03:30:38.638Z,10.53
2019-03-24T03:33:09.057Z,9.33
2019-03-24T03:35:39.593Z,11.03
2019-03-24T03:38:09.874Z,10.73
2019-03-24T03:40:40.335Z,8.73
2019-03-24T03:43:10.619Z,10.73
2019-03-24T03:45:41.054Z,11.20
2019-03-24T03:48:11.328Z,8.40
2019-03-24T03:50:41.663Z,9.43
2019-03-24T03:53:11.997Z,9.60
2019-03-24T03:55:42.332Z,9.57
2019-03-24T03:58:12.646Z,9.27
2019-03-24T04:00:42.909Z,11.37
2019-03-24T04:03:13.366Z,9.93
2019-03-24T04:05:43.623Z,7.47
2019-03-24T04:08:14.001Z,8.60
2019-03-24T04:10:44.271Z,11.77
2019-03-24T04:13:14.682Z,11.07
2019-03-24T04:15:45.043Z,12.30
2019-03-24T04:18:16.284Z,10.30
2019-03-24T04:20:46.622Z,10.90
2019-03-24T04:23:16.906Z,10.87
2019-03-24T04:25:47.164Z,10.83
2019-03-24T04:28:17.449Z,9.93
2019-03-24T04:30:47.744Z,10.07
2019-03-24T04:33:18.153Z,10.37
2019-03-24T04:35:48.423Z,8.23
2019-03-24T04:38:18.701Z,10.03
2019-03-24T04:40:49.005Z,10.80
2019-03-24T04:43:19.343Z,9.77
2019-03-24T04:45:49.747Z,10.20
2019-03-24T04:48:20.122Z,10.30
2019-03-24T04:50:50.523Z,10.27
2019-03-24T04:53:20.988Z,11.77
2019-03-24T04:55:51.284Z,11.90
2019-03-24T04:58:22.596Z,9.43
2019-03-24T05:00:52.898Z,10.03
2019-03-24T05:03:23.182Z,10.77
2019-03-24T05:05:54.491Z,11.40
2019-03-24T05:08:25.307Z,11.43
2019-03-24T05:10:55.576Z,9.97
2019-03-24T05:13:25.952Z,11.63
2019-03-24T05:15:56.300Z,11.50
2019-03-24T05:18:26.602Z,12.97
2019-03-24T05:20:56.867Z,12.33
2019-03-24T05:23:27.166Z,10.57
2019-03-24T05:25:57.457Z,11.43
2019-03-24T05:28:27.792Z,10.57
2019-03-24T05:30:58.056Z,10.93
2019-03-24T05:33:28.378Z,10.57
2019-03-24T05:35:58.661Z,11.10
2019-03-24T05:38:28.940Z,11.13
2019-03-24T05:40:59.460Z,11.17
2019-03-24T05:43:29.731Z,9.27
2019-03-24T05:46:00.240Z,9.57
2019-03-24T05:48:30.857Z,10.93
2019-03-24T05:51:01.124Z,10.47
2019-03-24T05:53:31.406Z,10.30
2019-03-24T05:56:01.681Z,10.40
2019-03-24T05:58:31.964Z,11.87
2019-03-24T06:01:02.305Z,12.10
2019-03-24T06:03:32.571Z,12.17
2019-03-24T06:06:03.001Z,11.57
2019-03-24T06:08:33.321Z,14.17
2019-03-24T06:11:03.660Z,13.37
2019-03-24T06:13:33.928Z,12.90
2019-03-24T06:16:04.374Z,12.80
2019-03-24T06:18:34.693Z,13.43
2019-03-24T06:21:05.134Z,13.40
2019-03-24T06:23:35.449Z,14.20
2019-03-24T06:26:06.715Z,13.80
2019-03-24T06:28:37.028Z,12.97
2019-03-24T06:31:07.382Z,12.97
2019-03-24T06:33:37.715Z,12.33
2019-03-24T06:36:07.976Z,13.37
2019-03-24T06:38:38.294Z,13.07
2019-03-24T06:41:08.640Z,13.27
2019-03-24T06:43:38.940Z,13.03
2019-03-24T06:46:09.260Z,12.10
2019-03-24T06:48:40.004Z,12.77
2019-03-24T06:51:10.408Z,14.13
2019-03-24T06:53:40.783Z,13.63
2019-03-24T06:56:11.208Z,13.03
2019-03-24T06:58:41.584Z,13.67
2019-03-24T07:01:12.012Z,14.20
2019-03-24T07:03:42.397Z,14.13
2019-03-24T07:06:12.908Z,13.10
2019-03-24T07:08:43.380Z,14.30
2019-03-24T07:11:14.122Z,15.17
2019-03-24T07:13:44.875Z,16.30
2019-03-24T07:16:15.392Z,14.73
2019-03-24T07:18:45.821Z,15.03
2019-03-24T07:21:16.453Z,15.13
2019-03-24T07:23:47.040Z,16.40
2019-03-24T07:26:17.500Z,15.07
2019-03-24T07:28:47.916Z,15.77
2019-03-24T07:31:18.399Z,15.13
2019-03-24T07:33:48.759Z,16.93
2019-03-24T07:36:19.383Z,15.73
2019-03-24T07:38:50.316Z,15.03
2019-03-24T07:41:20.777Z,16.30
2019-03-24T07:43:51.459Z,16.13
2019-03-24T07:46:21.893Z,16.40
2019-03-24T07:48:52.471Z,17.03
2019-03-24T07:51:22.899Z,17.47
2019-03-24T07:53:53.324Z,17.47
2019-03-24T07:56:23.819Z,18.50
2019-03-24T07:58:54.454Z,17.27
2019-03-24T08:01:25.088Z,18.13
2019-03-24T08:03:55.580Z,17.03
2019-03-24T08:06:25.946Z,16.73
2019-03-24T08:08:57.579Z,18.57
2019-03-24T08:11:30.164Z,18.73
2019-03-24T08:14:00.531Z,17.23
2019-03-24T08:16:30.915Z,16.70
2019-03-24T08:19:01.318Z,18.20
2019-03-24T08:21:31.744Z,17.67
2019-03-24T08:24:02.159Z,18.40
2019-03-24T08:26:32.614Z,17.60
2019-03-24T08:29:03.433Z,17.67
2019-03-24T08:31:33.869Z,17.27
2019-03-24T08:34:04.287Z,18.10
2019-03-24T08:36:34.892Z,16.80
2019-03-24T08:39:06.656Z,18.40
2019-03-24T08:41:38.770Z,17.43
2019-03-24T08:44:09.313Z,17.80
2019-03-24T08:46:39.584Z,18.80
2019-03-24T08:49:09.927Z,18.67
2019-03-24T08:51:41.179Z,19.00
2019-03-24T08:54:11.461Z,18.10
2019-03-24T08:56:41.736Z,19.67
2019-03-24T08:59:12.014Z,19.93
2019-03-24T09:01:42.405Z,20.03
2019-03-24T09:04:12.755Z,20.20
2019-03-24T09:06:44.176Z,19.50
2019-03-24T09:09:14.582Z,17.97
2019-03-24T09:11:45.372Z,20.33
2019-03-24T09:14:15.732Z,19.03
2019-03-24T09:16:46.518Z,20.27
2019-03-24T09:19:16.856Z,19.17
2019-03-24T09:21:47.292Z,18.87
2019-03-24T09:24:17.920Z,18.70
2019-03-24T09:26:48.345Z,19.33
2019-03-24T09:29:18.772Z,20.27
2019-03-24T09:31:49.205Z,19.43
2019-03-24T09:34:19.967Z,19.73
2019-03-24T09:36:50.568Z,19.67
2019-03-24T09:39:21.320Z,19.83
2019-03-24T09:41:51.643Z,20.63
2019-03-24T09:44:27.013Z,18.97
2019-03-24T09:46:57.434Z,18.80
2019-03-24T09:49:27.781Z,18.90
2019-03-24T09:51:58.427Z,19.67
2019-03-24T09:54:29.067Z,19.17
2019-03-24T09:56:59.687Z,18.93
2019-03-24T09:59:30.200Z,18.50
2019-03-24T10:02:00.673Z,20.33
2019-03-24T10:04:31.244Z,19.80
2019-03-24T10:07:05.032Z,19.43
2019-03-24T10:09:35.755Z,18.20
2019-03-24T10:12:07.518Z,19.03
2019-03-24T10:14:37.876Z,19.50
2019-03-24T10:17:08.235Z,19.90
2019-03-24T10:19:38.509Z,17.63
2019-03-24T10:22:08.918Z,17.83
2019-03-24T10:24:39.716Z,18.13
2019-03-24T10:27:09.999Z,18.20
2019-03-24T10:29:40.377Z,19.73
2019-03-24T10:32:10.741Z,20.10
2019-03-24T10:34:41.639Z,19.03
2019-03-24T10:37:12.031Z,19.27
2019-03-24T10:39:42.372Z,18.63
2019-03-24T10:42:12.744Z,18.57
2019-03-24T10:44:47.134Z,21.13
2019-03-24T10:47:17.788Z,19.43
2019-03-24T10:49:48.093Z,20.50
2019-03-24T10:52:18.494Z,20.60
2019-03-24T10:54:49.347Z,19.47
2019-03-24T10:57:19.837Z,19.03
2019-03-24T10:59:50.525Z,18.90
2019-03-24T11:02:20.899Z,19.90
2019-03-24T11:04:51.420Z,20.00
2019-03-24T11:07:21.904Z,20.00
2019-03-24T11:09:52.200Z,18.77
2019-03-24T11:12:22.866Z,19.73
2019-03-24T11:14:53.409Z,20.57
2019-03-24T11:17:23.695Z,20.70
2019-03-24T11:19:54.052Z,19.60
2019-03-24T11:22:24.442Z,18.33
2019-03-24T11:24:55.161Z,19.10
2019-03-24T11:27:25.546Z,19.67
2019-03-24T11:29:55.896Z,17.97
2019-03-24T11:32:26.352Z,19.43
2019-03-24T11:34:56.697Z,19.60
2019-03-24T11:37:27.311Z,19.07
2019-03-24T11:40:02.174Z,20.03
2019-03-24T11:42:32.823Z,19.20
2019-03-24T11:45:03.525Z,21.67
2019-03-24T11:47:33.961Z,19.93
2019-03-24T11:50:04.750Z,19.80
2019-03-24T11:52:35.282Z,19.30
2019-03-24T11:55:06.644Z,30.00
2019-03-24T11:57:37.244Z,48.50
2019-03-24T12:00:09.026Z,19.80
2019-03-24T12:02:40.698Z,22.53
2019-03-24T12:05:11.340Z,45.63
2019-03-24T12:07:41.856Z,19.13
2019-03-24T12:10:12.504Z,18.67
2019-03-24T12:12:42.999Z,17.90
2019-03-24T12:15:14.490Z,20.50
2019-03-24T12:17:44.862Z,17.80
2019-03-24T12:20:15.736Z,17.80
2019-03-24T12:22:46.051Z,17.70
2019-03-24T12:25:16.918Z,17.93
2019-03-24T12:27:47.349Z,18.70
2019-03-24T12:30:17.835Z,16.13
2019-03-24T12:32:48.184Z,18.07
2019-03-24T12:35:18.606Z,19.53
2019-03-24T12:37:49.132Z,16.40
2019-03-24T12:40:20.560Z,18.20
2019-03-24T12:42:51.040Z,16.17
2019-03-24T12:45:21.512Z,16.40
2019-03-24T12:47:51.900Z,16.57
2019-03-24T12:50:31.042Z,15.40
2019-03-24T12:52:54.352Z,16.20
2019-03-24T12:55:24.796Z,15.63
2019-03-24T12:57:55.172Z,17.70
2019-03-24T13:00:39.710Z,17.00
2019-03-24T13:03:10.578Z,17.07
2019-03-24T13:05:41.487Z,17.20
2019-03-24T13:08:13.241Z,16.07
2019-03-24T13:10:43.894Z,17.67
2019-03-24T13:13:14.301Z,17.40
2019-03-24T13:15:44.788Z,18.07
2019-03-24T13:18:16.179Z,18.83
2019-03-24T13:20:46.645Z,17.87
2019-03-24T13:23:16.993Z,17.57
2019-03-24T13:25:47.316Z,16.83
2019-03-24T13:28:17.835Z,18.53
2019-03-24T13:30:48.439Z,17.80
2019-03-24T13:33:19.258Z,18.07
2019-03-24T13:35:54.682Z,18.27
2019-03-24T13:38:24.953Z,18.27
2019-03-24T13:40:56.564Z,17.00
2019-03-24T13:43:26.833Z,16.83
2019-03-24T13:45:57.560Z,15.60
2019-03-24T13:48:27.989Z,17.57
2019-03-24T13:50:58.348Z,16.37
2019-03-24T13:53:29.000Z,15.83
2019-03-24T13:55:59.571Z,17.03
2019-03-24T13:58:29.919Z,16.87
2019-03-24T14:01:00.279Z,16.90
2019-03-24T14:03:30.839Z,15.80
2019-03-24T14:06:01.201Z,16.27
2019-03-24T14:08:31.637Z,17.33
2019-03-24T14:11:02.256Z,17.40
2019-03-24T14:13:32.832Z,16.83
2019-03-24T14:16:03.269Z,15.07
2019-03-24T14:18:33.642Z,15.30
2019-03-24T14:21:04.120Z,16.93
2019-03-24T14:23:34.564Z,16.10
2019-03-24T14:26:05.077Z,15.20
2019-03-24T14:28:36.897Z,16.57
2019-03-24T14:31:07.271Z,16.30
2019-03-24T14:33:37.692Z,15.63
2019-03-24T14:36:08.060Z,15.30
2019-03-24T14:38:39.034Z,17.47
2019-03-24T14:41:09.498Z,15.70
2019-03-24T14:43:40.752Z,16.23
2019-03-24T14:46:11.596Z,16.83
2019-03-24T14:48:41.876Z,16.93
2019-03-24T14:51:12.549Z,15.77
2019-03-24T14:53:42.955Z,15.67
2019-03-24T14:56:13.322Z,16.10
2019-03-24T14:58:43.943Z,16.47
2019-03-24T15:01:14.296Z,15.93
2019-03-24T15:03:44.576Z,16.87
2019-03-24T15:06:14.855Z,15.93
2019-03-24T15:08:45.279Z,16.53
2019-03-24T15:11:15.716Z,16.27
2019-03-24T15:13:45.996Z,15.67
2019-03-24T15:16:16.626Z,15.97
2019-03-24T15:18:46.931Z,17.53
2019-03-24T15:21:22.498Z,15.77
2019-03-24T15:23:53.085Z,14.90
2019-03-24T15:26:23.431Z,14.43
2019-03-24T15:28:53.760Z,15.20
2019-03-24T15:31:24.172Z,15.43
2019-03-24T15:33:54.758Z,15.50
2019-03-24T15:36:25.355Z,15.27
2019-03-24T15:38:55.723Z,16.57
2019-03-24T15:41:26.085Z,15.37
2019-03-24T15:43:56.734Z,15.33
2019-03-24T15:46:27.003Z,33.07
2019-03-24T15:48:57.284Z,30.23
2019-03-24T15:51:27.647Z,19.83
2019-03-24T15:53:57.978Z,25.10
2019-03-24T15:56:28.256Z,26.07
2019-03-24T15:58:58.525Z,25.57
2019-03-24T16:01:29.095Z,15.60
2019-03-24T16:03:59.640Z,17.43
2019-03-24T16:06:30.093Z,17.00
2019-03-24T16:09:00.479Z,17.70
2019-03-24T16:11:30.941Z,17.20
2019-03-24T16:14:01.296Z,16.33
2019-03-24T16:16:31.865Z,16.87
2019-03-24T16:19:02.231Z,15.47
2019-03-24T16:21:32.586Z,15.07
2019-03-24T16:24:02.902Z,15.00
2019-03-24T16:26:33.210Z,15.93
2019-03-24T16:29:03.557Z,15.60
2019-03-24T16:31:34.010Z,15.57
2019-03-24T16:34:06.773Z,15.70
2019-03-24T16:36:38.181Z,15.90
2019-03-24T16:39:08.654Z,18.67
2019-03-24T16:41:39.004Z,18.33
2019-03-24T16:44:09.359Z,16.53
2019-03-24T16:46:39.803Z,15.40
2019-03-24T16:49:10.093Z,15.50
2019-03-24T16:51:41.675Z,16.80
2019-03-24T16:54:12.331Z,13.80
2019-03-24T16:56:42.692Z,15.13
2019-03-24T16:59:15.071Z,15.57
2019-03-24T17:01:45.517Z,14.90
2019-03-24T17:04:16.075Z,15.43
2019-03-24T17:06:46.788Z,16.43
2019-03-24T17:09:17.147Z,16.73
2019-03-24T17:11:47.454Z,15.60
2019-03-24T17:14:18.409Z,15.70
2019-03-24T17:16:48.749Z,16.53
2019-03-24T17:19:19.493Z,15.60
2019-03-24T17:21:50.460Z,15.27
2019-03-24T17:24:20.752Z,16.37
2019-03-24T17:26:51.376Z,14.77
2019-03-24T17:29:21.661Z,16.10
2019-03-24T17:31:52.019Z,16.30
2019-03-24T17:34:22.391Z,17.80
2019-03-24T17:36:52.836Z,17.07
2019-03-24T17:39:23.568Z,17.63
2019-03-24T17:41:53.950Z,17.23
2019-03-24T17:44:25.438Z,18.00
2019-03-24T17:46:55.875Z,16.50
2019-03-24T17:49:26.317Z,17.17
2019-03-24T17:52:00.697Z,18.07
2019-03-24T17:54:28.572Z,17.17
2019-03-24T17:56:59.005Z,18.80
2019-03-24T17:59:29.531Z,17.60
2019-03-24T18:02:00.167Z,19.33
2019-03-24T18:04:31.521Z,21.93
2019-03-24T18:07:01.836Z,20.13
2019-03-24T18:09:32.215Z,20.33
2019-03-24T18:12:02.568Z,21.10
2019-03-24T18:14:34.656Z,21.53
2019-03-24T18:17:05.512Z,21.07
2019-03-24T18:19:37.063Z,20.93
2019-03-24T18:22:11.869Z,21.63
2019-03-24T18:24:39.995Z,21.70
2019-03-24T18:27:11.384Z,20.13
2019-03-24T18:29:41.792Z,22.33
2019-03-24T18:32:12.264Z,21.67
2019-03-24T18:34:42.772Z,23.47
2019-03-24T18:37:13.275Z,22.03
2019-03-24T18:39:43.728Z,22.03
2019-03-24T18:42:14.203Z,21.67
2019-03-24T18:44:44.728Z,21.70
2019-03-24T18:47:15.184Z,21.40
2019-03-24T18:49:45.610Z,21.57
2019-03-24T18:52:22.944Z,22.03
2019-03-24T18:54:51.625Z,20.57
2019-03-24T18:57:22.210Z,21.97
2019-03-24T18:59:52.558Z,21.77
2019-03-24T19:02:22.969Z,22.60
2019-03-24T19:04:53.640Z,23.07
2019-03-24T19:07:24.021Z,27.43
2019-03-24T19:09:54.430Z,27.67
2019-03-24T19:12:24.984Z,23.80
2019-03-24T19:14:55.583Z,22.23
2019-03-24T19:17:26.144Z,21.13
2019-03-24T19:19:56.495Z,23.33
2019-03-24T19:22:33.582Z,22.17
2019-03-24T19:24:59.023Z,23.53
2019-03-24T19:27:29.405Z,22.90
2019-03-24T19:29:59.708Z,23.23
2019-03-24T19:32:30.357Z,23.07
2019-03-24T19:35:00.909Z,25.87
2019-03-24T19:37:33.251Z,22.77
2019-03-24T19:40:04.116Z,22.13
2019-03-24T19:42:34.600Z,22.97
2019-03-24T19:45:06.620Z,23.53
2019-03-24T19:47:37.215Z,21.83
2019-03-24T19:50:07.687Z,23.10
2019-03-24T19:52:44.701Z,22.57
2019-03-24T19:55:10.310Z,22.00
2019-03-24T19:57:40.827Z,22.53
2019-03-24T20:00:12.831Z,23.73
2019-03-24T20:02:43.364Z,23.37
2019-03-24T20:05:14.202Z,22.27
2019-03-24T20:07:48.055Z,23.43
2019-03-24T20:10:17.771Z,21.67
2019-03-24T20:12:48.296Z,23.87
2019-03-24T20:15:18.813Z,25.17
2019-03-24T20:17:49.213Z,25.10
2019-03-24T20:20:19.814Z,24.77
2019-03-24T20:23:27.276Z,23.70
2019-03-24T20:26:13.309Z,23.17
2019-03-24T20:28:43.748Z,23.97
2019-03-24T20:31:14.859Z,23.40
2019-03-24T20:33:45.212Z,21.93
2019-03-24T20:36:15.673Z,23.53
2019-03-24T20:38:46.264Z,23.17
2019-03-24T20:41:16.678Z,20.70
2019-03-24T20:43:48.538Z,24.67
2019-03-24T20:46:19.027Z,22.07
2019-03-24T20:48:49.639Z,22.20
2019-03-24T20:51:21.907Z,23.00
2019-03-24T20:53:52.643Z,22.60
2019-03-24T20:56:23.416Z,23.17
2019-03-24T20:58:54.038Z,22.10
2019-03-24T21:01:24.572Z,20.20
2019-03-24T21:03:55.023Z,22.00
2019-03-24T21:06:25.475Z,22.30
2019-03-24T21:08:55.889Z,22.50
2019-03-24T21:11:26.260Z,22.00
2019-03-24T21:13:56.725Z,22.57
2019-03-24T21:16:27.245Z,21.97
2019-03-24T21:18:57.652Z,19.30
2019-03-24T21:21:28.202Z,19.03
2019-03-24T21:23:58.660Z,21.40
2019-03-24T21:26:29.098Z,20.10
2019-03-24T21:28:59.449Z,19.93
2019-03-24T21:31:29.798Z,21.40
2019-03-24T21:34:00.394Z,22.33
2019-03-24T21:36:30.752Z,22.13
2019-03-24T21:39:01.357Z,22.43
2019-03-24T21:41:33.008Z,21.60
2019-03-24T21:44:03.516Z,20.90
2019-03-24T21:46:33.943Z,22.23
2019-03-24T21:49:04.482Z,22.43
2019-03-24T21:51:34.834Z,23.27
2019-03-24T21:54:05.603Z,22.57
2019-03-24T21:56:36.017Z,22.93
2019-03-24T21:59:06.376Z,21.97
2019-03-24T22:01:36.677Z,22.27
2019-03-24T22:04:07.160Z,21.27
2019-03-24T22:06:37.607Z,22.53
2019-03-24T22:09:08.952Z,22.80
2019-03-24T22:11:39.348Z,21.93
2019-03-24T22:14:09.974Z,23.93
2019-03-24T22:16:40.383Z,21.83
2019-03-24T22:19:10.916Z,22.57
2019-03-24T22:21:41.324Z,23.73
2019-03-24T22:24:11.683Z,21.47
2019-03-24T22:26:41.980Z,23.80
2019-03-24T22:29:12.336Z,21.23
2019-03-24T22:31:42.692Z,21.43
2019-03-24T22:34:13.039Z,21.83
2019-03-24T22:36:43.494Z,22.57
2019-03-24T22:39:14.008Z,23.97
2019-03-24T22:41:44.280Z,24.53
2019-03-24T22:44:14.553Z,21.53
2019-03-24T22:46:44.822Z,22.60
2019-03-24T22:49:15.079Z,24.27
2019-03-24T22:51:45.427Z,23.17
2019-03-24T22:54:15.897Z,21.90
2019-03-24T22:56:46.579Z,23.70
2019-03-24T22:59:17.520Z,22.57
2019-03-24T23:01:47.859Z,23.10
2019-03-24T23:04:18.216Z,22.37
2019-03-24T23:06:48.562Z,24.67
2019-03-24T23:09:18.910Z,21.97
2019-03-24T23:11:49.206Z,21.90
2019-03-24T23:14:19.755Z,22.37
2019-03-24T23:16:50.024Z,21.90
2019-03-24T23:19:20.304Z,21.87
2019-03-24T23:21:50.824Z,22.63
2019-03-24T23:24:21.108Z,22.43
2019-03-24T23:26:51.456Z,22.53
2019-03-24T23:29:21.873Z,21.27
2019-03-24T23:31:52.147Z,24.13
2019-03-24T23:34:22.424Z,21.73
2019-03-24T23:36:52.844Z,22.53
2019-03-24T23:39:23.449Z,23.10
2019-03-24T23:41:53.750Z,21.97
2019-03-24T23:44:24.109Z,22.33
2019-03-24T23:46:54.375Z,21.23
2019-03-24T23:49:24.985Z,22.53
2019-03-24T23:51:55.244Z,25.30
2019-03-24T23:54:27.364Z,22.33
2019-03-24T23:56:57.550Z,22.33
2019-03-24T23:59:27.817Z,23.30
